sensor_id;sensor_type;location;lat;lon;timestamp;temperature;humidity
23081;DHT22;11708;50.570;8.532;2022-09-09T00:01:42;16.50;99.90
23081;DHT22;11708;50.570;8.532;2022-09-09T00:04:37;16.40;99.90
23081;DHT22;11708;50.570;8.532;2022-09-09T00:09:46;16.30;99.90
23081;DHT22;11708;50.570;8.532;2022-09-09T00:12:31;16.30;99.90
23081;DHT22;11708;50.570;8.532;2022-09-09T00:15:14;16.30;99.90
23081;DHT22;11708;50.570;8.532;2022-09-09T00:17:53;16.30;99.90
23081;DHT22;11708;50.570;8.532;2022-09-09T00:20:39;16.20;99.90
23081;DHT22;11708;50.570;8.532;2022-09-09T00:23:24;16.20;99.90
23081;DHT22;11708;50.570;8.532;2022-09-09T00:28:33;16.20;99.90
23081;DHT22;11708;50.570;8.532;2022-09-09T00:31:12;16.20;99.90
23081;DHT22;11708;50.570;8.532;2022-09-09T00:33:38;16.20;99.90
23081;DHT22;11708;50.570;8.532;2022-09-09T00:36:13;16.10;99.90
23081;DHT22;11708;50.570;8.532;2022-09-09T00:38:49;16.10;99.90
23081;DHT22;11708;50.570;8.532;2022-09-09T00:44:01;16.10;99.90
23081;DHT22;11708;50.570;8.532;2022-09-09T00:57:31;15.90;99.90
23081;DHT22;11708;50.570;8.532;2022-09-09T01:05:46;15.90;99.90
23081;DHT22;11708;50.570;8.532;2022-09-09T01:10:52;15.90;99.90
23081;DHT22;11708;50.570;8.532;2022-09-09T01:13:33;15.70;99.90
23081;DHT22;11708;50.570;8.532;2022-09-09T01:16:01;15.70;99.90
23081;DHT22;11708;50.570;8.532;2022-09-09T01:18:46;15.70;99.90
23081;DHT22;11708;50.570;8.532;2022-09-09T01:21:42;15.60;99.90
23081;DHT22;11708;50.570;8.532;2022-09-09T01:24:16;15.60;99.90
23081;DHT22;11708;50.570;8.532;2022-09-09T01:26:45;15.60;99.90
23081;DHT22;11708;50.570;8.532;2022-09-09T01:29:14;15.50;99.90
23081;DHT22;11708;50.570;8.532;2022-09-09T01:31:51;15.60;99.90
23081;DHT22;11708;50.570;8.532;2022-09-09T01:34:18;15.60;99.90
23081;DHT22;11708;50.570;8.532;2022-09-09T01:36:53;15.60;99.90
23081;DHT22;11708;50.570;8.532;2022-09-09T01:39:22;15.60;99.90
23081;DHT22;11708;50.570;8.532;2022-09-09T01:41:48;15.60;99.90
23081;DHT22;11708;50.570;8.532;2022-09-09T01:44:14;15.70;99.90
23081;DHT22;11708;50.570;8.532;2022-09-09T01:46:40;16.30;99.90
23081;DHT22;11708;50.570;8.532;2022-09-09T01:49:07;15.60;99.90
23081;DHT22;11708;50.570;8.532;2022-09-09T01:51:34;15.70;99.90
23081;DHT22;11708;50.570;8.532;2022-09-09T01:54:01;15.70;99.90
23081;DHT22;11708;50.570;8.532;2022-09-09T02:00:25;15.80;99.90
23081;DHT22;11708;50.570;8.532;2022-09-09T02:05:30;15.80;99.90
23081;DHT22;11708;50.570;8.532;2022-09-09T02:08:11;15.80;99.90
23081;DHT22;11708;50.570;8.532;2022-09-09T02:11:01;15.80;99.90
23081;DHT22;11708;50.570;8.532;2022-09-09T02:13:34;15.70;99.90
23081;DHT22;11708;50.570;8.532;2022-09-09T02:16:07;15.70;99.90
23081;DHT22;11708;50.570;8.532;2022-09-09T02:21:31;15.70;99.90
23081;DHT22;11708;50.570;8.532;2022-09-09T02:23:59;15.70;99.90
23081;DHT22;11708;50.570;8.532;2022-09-09T02:26:26;15.60;99.90
23081;DHT22;11708;50.570;8.532;2022-09-09T02:28:55;15.60;99.90
23081;DHT22;11708;50.570;8.532;2022-09-09T02:31:24;15.70;99.90
23081;DHT22;11708;50.570;8.532;2022-09-09T02:33:59;15.60;99.90
23081;DHT22;11708;50.570;8.532;2022-09-09T02:36:29;15.60;99.90
23081;DHT22;11708;50.570;8.532;2022-09-09T02:38:56;15.60;99.90
23081;DHT22;11708;50.570;8.532;2022-09-09T02:41:35;15.60;99.90
23081;DHT22;11708;50.570;8.532;2022-09-09T02:44:02;15.60;99.90
23081;DHT22;11708;50.570;8.532;2022-09-09T02:46:51;15.60;99.90
23081;DHT22;11708;50.570;8.532;2022-09-09T02:52:06;15.60;99.90
23081;DHT22;11708;50.570;8.532;2022-09-09T02:54:34;15.60;99.90
23081;DHT22;11708;50.570;8.532;2022-09-09T02:57:25;15.60;99.90
23081;DHT22;11708;50.570;8.532;2022-09-09T02:59:53;15.60;99.90
23081;DHT22;11708;50.570;8.532;2022-09-09T03:02:19;15.60;99.90
23081;DHT22;11708;50.570;8.532;2022-09-09T03:04:44;15.70;99.90
23081;DHT22;11708;50.570;8.532;2022-09-09T03:07:16;15.60;99.90
23081;DHT22;11708;50.570;8.532;2022-09-09T03:09:42;16.10;99.90
23081;DHT22;11708;50.570;8.532;2022-09-09T03:12:08;15.30;99.90
23081;DHT22;11708;50.570;8.532;2022-09-09T03:14:35;15.60;99.90
23081;DHT22;11708;50.570;8.532;2022-09-09T03:17:01;15.60;99.90
23081;DHT22;11708;50.570;8.532;2022-09-09T03:19:27;15.70;99.90
23081;DHT22;11708;50.570;8.532;2022-09-09T03:21:53;15.60;99.90
23081;DHT22;11708;50.570;8.532;2022-09-09T03:24:19;15.60;99.90
23081;DHT22;11708;50.570;8.532;2022-09-09T03:26:45;15.80;99.90
23081;DHT22;11708;50.570;8.532;2022-09-09T03:29:11;16.00;99.90
23081;DHT22;11708;50.570;8.532;2022-09-09T03:31:38;15.50;99.90
23081;DHT22;11708;50.570;8.532;2022-09-09T03:34:04;15.50;99.90
23081;DHT22;11708;50.570;8.532;2022-09-09T03:36:29;15.50;99.90
23081;DHT22;11708;50.570;8.532;2022-09-09T03:38:55;15.50;99.90
23081;DHT22;11708;50.570;8.532;2022-09-09T03:41:22;15.60;99.90
23081;DHT22;11708;50.570;8.532;2022-09-09T03:43:53;15.70;99.90
23081;DHT22;11708;50.570;8.532;2022-09-09T03:46:20;15.50;99.90
23081;DHT22;11708;50.570;8.532;2022-09-09T03:48:46;15.90;99.90
23081;DHT22;11708;50.570;8.532;2022-09-09T03:53:37;15.60;99.90
23081;DHT22;11708;50.570;8.532;2022-09-09T03:56:05;15.60;99.90
23081;DHT22;11708;50.570;8.532;2022-09-09T03:58:33;15.50;99.90
23081;DHT22;11708;50.570;8.532;2022-09-09T04:03:28;15.40;99.90
23081;DHT22;11708;50.570;8.532;2022-09-09T04:05:55;15.50;99.90
23081;DHT22;11708;50.570;8.532;2022-09-09T04:08:21;15.80;99.90
23081;DHT22;11708;50.570;8.532;2022-09-09T04:10:48;15.50;99.90
23081;DHT22;11708;50.570;8.532;2022-09-09T04:13:15;15.50;99.90
23081;DHT22;11708;50.570;8.532;2022-09-09T04:15:42;15.70;99.90
23081;DHT22;11708;50.570;8.532;2022-09-09T04:18:08;15.80;99.90
23081;DHT22;11708;50.570;8.532;2022-09-09T04:20:34;16.10;99.90
23081;DHT22;11708;50.570;8.532;2022-09-09T04:23:01;15.60;99.90
23081;DHT22;11708;50.570;8.532;2022-09-09T04:25:26;15.70;99.90
23081;DHT22;11708;50.570;8.532;2022-09-09T04:27:56;15.60;99.90
23081;DHT22;11708;50.570;8.532;2022-09-09T04:30:22;15.90;99.90
23081;DHT22;11708;50.570;8.532;2022-09-09T04:32:47;15.70;99.90
23081;DHT22;11708;50.570;8.532;2022-09-09T04:35:13;15.70;99.90
23081;DHT22;11708;50.570;8.532;2022-09-09T04:37:39;15.70;99.90
23081;DHT22;11708;50.570;8.532;2022-09-09T04:40:05;15.70;99.90
23081;DHT22;11708;50.570;8.532;2022-09-09T04:42:38;15.60;99.90
23081;DHT22;11708;50.570;8.532;2022-09-09T04:45:04;16.70;99.90
23081;DHT22;11708;50.570;8.532;2022-09-09T04:47:30;14.90;99.90
23081;DHT22;11708;50.570;8.532;2022-09-09T04:49:56;15.60;99.90
23081;DHT22;11708;50.570;8.532;2022-09-09T04:52:23;15.50;99.90
23081;DHT22;11708;50.570;8.532;2022-09-09T04:54:48;15.50;99.90
23081;DHT22;11708;50.570;8.532;2022-09-09T04:57:14;15.50;99.90
23081;DHT22;11708;50.570;8.532;2022-09-09T04:59:39;15.50;99.90
23081;DHT22;11708;50.570;8.532;2022-09-09T05:02:05;15.50;99.90
23081;DHT22;11708;50.570;8.532;2022-09-09T05:04:31;15.50;99.90
23081;DHT22;11708;50.570;8.532;2022-09-09T05:06:58;16.20;99.90
23081;DHT22;11708;50.570;8.532;2022-09-09T05:09:24;15.80;99.90
23081;DHT22;11708;50.570;8.532;2022-09-09T05:11:50;15.50;99.90
23081;DHT22;11708;50.570;8.532;2022-09-09T05:14:15;15.50;99.90
23081;DHT22;11708;50.570;8.532;2022-09-09T05:16:41;15.60;99.90
23081;DHT22;11708;50.570;8.532;2022-09-09T05:19:08;16.00;99.90
23081;DHT22;11708;50.570;8.532;2022-09-09T05:21:34;15.60;99.90
23081;DHT22;11708;50.570;8.532;2022-09-09T05:24:00;15.60;99.90
23081;DHT22;11708;50.570;8.532;2022-09-09T05:26:28;15.70;99.90
23081;DHT22;11708;50.570;8.532;2022-09-09T05:28:55;16.40;99.90
23081;DHT22;11708;50.570;8.532;2022-09-09T05:31:21;16.00;99.90
23081;DHT22;11708;50.570;8.532;2022-09-09T05:33:47;15.70;99.90
23081;DHT22;11708;50.570;8.532;2022-09-09T05:36:17;15.70;99.90
23081;DHT22;11708;50.570;8.532;2022-09-09T05:38:44;15.80;99.90
23081;DHT22;11708;50.570;8.532;2022-09-09T05:41:11;15.70;99.90
23081;DHT22;11708;50.570;8.532;2022-09-09T05:43:37;15.80;99.90
23081;DHT22;11708;50.570;8.532;2022-09-09T05:46:09;15.70;99.90
23081;DHT22;11708;50.570;8.532;2022-09-09T05:48:37;15.70;99.90
23081;DHT22;11708;50.570;8.532;2022-09-09T05:51:04;16.20;99.90
23081;DHT22;11708;50.570;8.532;2022-09-09T05:53:30;15.80;99.90
23081;DHT22;11708;50.570;8.532;2022-09-09T05:58:30;15.80;99.90
23081;DHT22;11708;50.570;8.532;2022-09-09T06:01:04;15.90;99.90
23081;DHT22;11708;50.570;8.532;2022-09-09T06:06:00;15.90;99.90
23081;DHT22;11708;50.570;8.532;2022-09-09T06:08:26;16.00;99.90
23081;DHT22;11708;50.570;8.532;2022-09-09T06:10:52;16.00;99.90
23081;DHT22;11708;50.570;8.532;2022-09-09T06:13:18;16.80;99.90
23081;DHT22;11708;50.570;8.532;2022-09-09T06:15:51;16.10;99.90
23081;DHT22;11708;50.570;8.532;2022-09-09T06:18:17;16.20;99.90
23081;DHT22;11708;50.570;8.532;2022-09-09T06:20:56;16.20;99.90
23081;DHT22;11708;50.570;8.532;2022-09-09T06:23:22;16.30;99.90
23081;DHT22;11708;50.570;8.532;2022-09-09T06:25:48;16.60;99.90
23081;DHT22;11708;50.570;8.532;2022-09-09T06:28:14;16.40;99.90
23081;DHT22;11708;50.570;8.532;2022-09-09T06:30:40;16.40;99.90
23081;DHT22;11708;50.570;8.532;2022-09-09T06:33:06;16.40;99.90
23081;DHT22;11708;50.570;8.532;2022-09-09T06:35:32;16.50;99.90
23081;DHT22;11708;50.570;8.532;2022-09-09T06:37:57;16.60;99.90
23081;DHT22;11708;50.570;8.532;2022-09-09T06:40:24;16.70;99.90
23081;DHT22;11708;50.570;8.532;2022-09-09T06:42:50;16.80;99.90
23081;DHT22;11708;50.570;8.532;2022-09-09T06:45:16;16.90;99.90
23081;DHT22;11708;50.570;8.532;2022-09-09T06:47:43;17.00;99.90
23081;DHT22;11708;50.570;8.532;2022-09-09T06:50:09;17.20;99.90
23081;DHT22;11708;50.570;8.532;2022-09-09T06:52:36;17.00;99.90
23081;DHT22;11708;50.570;8.532;2022-09-09T06:55:02;16.90;99.90
23081;DHT22;11708;50.570;8.532;2022-09-09T06:57:28;17.20;99.90
23081;DHT22;11708;50.570;8.532;2022-09-09T06:59:53;17.30;99.90
23081;DHT22;11708;50.570;8.532;2022-09-09T07:02:19;18.00;99.90
23081;DHT22;11708;50.570;8.532;2022-09-09T07:04:45;17.70;99.90
23081;DHT22;11708;50.570;8.532;2022-09-09T07:07:10;17.70;99.90
23081;DHT22;11708;50.570;8.532;2022-09-09T07:09:39;17.50;99.90
23081;DHT22;11708;50.570;8.532;2022-09-09T07:12:05;17.40;99.90
23081;DHT22;11708;50.570;8.532;2022-09-09T07:16:59;17.50;99.90
23081;DHT22;11708;50.570;8.532;2022-09-09T07:19:25;17.50;99.90
23081;DHT22;11708;50.570;8.532;2022-09-09T07:21:51;17.70;99.90
23081;DHT22;11708;50.570;8.532;2022-09-09T07:24:16;18.10;99.90
23081;DHT22;11708;50.570;8.532;2022-09-09T07:26:42;17.50;99.90
23081;DHT22;11708;50.570;8.532;2022-09-09T07:29:09;17.50;99.90
23081;DHT22;11708;50.570;8.532;2022-09-09T07:31:37;18.20;99.90
23081;DHT22;11708;50.570;8.532;2022-09-09T07:34:04;17.50;99.90
23081;DHT22;11708;50.570;8.532;2022-09-09T07:36:32;17.50;99.90
23081;DHT22;11708;50.570;8.532;2022-09-09T07:39:00;17.60;99.90
23081;DHT22;11708;50.570;8.532;2022-09-09T07:41:31;17.60;99.90
23081;DHT22;11708;50.570;8.532;2022-09-09T07:43:58;17.70;99.90
23081;DHT22;11708;50.570;8.532;2022-09-09T07:46:25;17.70;99.90
23081;DHT22;11708;50.570;8.532;2022-09-09T07:48:53;18.50;99.90
23081;DHT22;11708;50.570;8.532;2022-09-09T07:51:23;17.80;99.90
23081;DHT22;11708;50.570;8.532;2022-09-09T07:53:52;17.70;99.90
23081;DHT22;11708;50.570;8.532;2022-09-09T07:56:18;17.80;99.90
23081;DHT22;11708;50.570;8.532;2022-09-09T07:58:45;17.80;99.90
23081;DHT22;11708;50.570;8.532;2022-09-09T08:01:18;17.90;99.90
23081;DHT22;11708;50.570;8.532;2022-09-09T08:03:45;17.90;99.90
23081;DHT22;11708;50.570;8.532;2022-09-09T08:06:11;17.90;99.90
23081;DHT22;11708;50.570;8.532;2022-09-09T08:08:38;18.00;99.90
23081;DHT22;11708;50.570;8.532;2022-09-09T08:11:07;17.90;99.90
23081;DHT22;11708;50.570;8.532;2022-09-09T08:13:38;18.00;99.90
23081;DHT22;11708;50.570;8.532;2022-09-09T08:16:25;18.00;99.90
23081;DHT22;11708;50.570;8.532;2022-09-09T08:18:52;18.00;99.90
23081;DHT22;11708;50.570;8.532;2022-09-09T08:21:26;18.10;99.90
23081;DHT22;11708;50.570;8.532;2022-09-09T08:23:54;18.10;99.90
23081;DHT22;11708;50.570;8.532;2022-09-09T08:26:22;17.90;99.90
23081;DHT22;11708;50.570;8.532;2022-09-09T08:28:50;18.80;99.90
23081;DHT22;11708;50.570;8.532;2022-09-09T08:31:19;18.30;99.90
23081;DHT22;11708;50.570;8.532;2022-09-09T08:33:45;18.30;99.90
23081;DHT22;11708;50.570;8.532;2022-09-09T08:36:14;18.50;99.90
23081;DHT22;11708;50.570;8.532;2022-09-09T08:38:43;18.50;99.90
23081;DHT22;11708;50.570;8.532;2022-09-09T08:41:29;18.70;99.90
23081;DHT22;11708;50.570;8.532;2022-09-09T08:44:11;18.80;99.90
23081;DHT22;11708;50.570;8.532;2022-09-09T08:49:48;18.80;99.90
23081;DHT22;11708;50.570;8.532;2022-09-09T08:52:31;18.90;99.90
23081;DHT22;11708;50.570;8.532;2022-09-09T08:55:18;18.90;99.90
23081;DHT22;11708;50.570;8.532;2022-09-09T08:57:48;19.00;99.90
23081;DHT22;11708;50.570;8.532;2022-09-09T09:00:15;19.00;99.90
23081;DHT22;11708;50.570;8.532;2022-09-09T09:02:54;19.10;99.90
23081;DHT22;11708;50.570;8.532;2022-09-09T09:05:37;19.20;99.90
23081;DHT22;11708;50.570;8.532;2022-09-09T09:11:06;19.30;99.90
23081;DHT22;11708;50.570;8.532;2022-09-09T09:13:57;19.40;99.90
23081;DHT22;11708;50.570;8.532;2022-09-09T09:19:19;19.60;99.90
23081;DHT22;11708;50.570;8.532;2022-09-09T09:24:30;19.60;99.90
23081;DHT22;11708;50.570;8.532;2022-09-09T09:26:59;19.70;99.90
23081;DHT22;11708;50.570;8.532;2022-09-09T09:29:26;19.80;99.90
23081;DHT22;11708;50.570;8.532;2022-09-09T09:31:56;19.80;99.90
23081;DHT22;11708;50.570;8.532;2022-09-09T09:34:24;20.20;99.90
23081;DHT22;11708;50.570;8.532;2022-09-09T09:36:56;19.90;99.90
23081;DHT22;11708;50.570;8.532;2022-09-09T09:39:27;20.00;99.90
23081;DHT22;11708;50.570;8.532;2022-09-09T09:41:53;20.10;99.90
23081;DHT22;11708;50.570;8.532;2022-09-09T09:44:30;20.20;99.90
23081;DHT22;11708;50.570;8.532;2022-09-09T09:47:13;20.20;99.90
23081;DHT22;11708;50.570;8.532;2022-09-09T09:50:01;20.20;99.90
23081;DHT22;11708;50.570;8.532;2022-09-09T09:52:28;20.20;99.90
23081;DHT22;11708;50.570;8.532;2022-09-09T09:54:56;20.20;99.90
23081;DHT22;11708;50.570;8.532;2022-09-09T09:57:27;20.90;99.90
23081;DHT22;11708;50.570;8.532;2022-09-09T10:00:12;19.80;99.90
23081;DHT22;11708;50.570;8.532;2022-09-09T10:02:40;19.80;99.90
23081;DHT22;11708;50.570;8.532;2022-09-09T10:05:29;20.00;99.90
23081;DHT22;11708;50.570;8.532;2022-09-09T10:19:16;19.10;99.90
23081;DHT22;11708;50.570;8.532;2022-09-09T10:22:08;19.00;99.90
23081;DHT22;11708;50.570;8.532;2022-09-09T10:35:26;19.10;99.90
23081;DHT22;11708;50.570;8.532;2022-09-09T10:38:44;19.40;99.90
23081;DHT22;11708;50.570;8.532;2022-09-09T10:46:44;19.30;99.90
23081;DHT22;11708;50.570;8.532;2022-09-09T10:52:13;19.30;99.90
23081;DHT22;11708;50.570;8.532;2022-09-09T10:55:09;19.30;99.90
23081;DHT22;11708;50.570;8.532;2022-09-09T10:57:47;19.50;99.90
23081;DHT22;11708;50.570;8.532;2022-09-09T11:00:23;19.80;99.90
23081;DHT22;11708;50.570;8.532;2022-09-09T11:02:58;19.90;99.90
23081;DHT22;11708;50.570;8.532;2022-09-09T11:05:33;20.20;99.90
23081;DHT22;11708;50.570;8.532;2022-09-09T11:08:05;20.40;99.90
23081;DHT22;11708;50.570;8.532;2022-09-09T11:16:39;21.00;99.90
23081;DHT22;11708;50.570;8.532;2022-09-09T11:19:34;21.10;99.90
23081;DHT22;11708;50.570;8.532;2022-09-09T11:22:03;21.00;99.90
23081;DHT22;11708;50.570;8.532;2022-09-09T11:24:39;20.90;99.90
23081;DHT22;11708;50.570;8.532;2022-09-09T11:27:23;20.90;99.90
23081;DHT22;11708;50.570;8.532;2022-09-09T11:30:12;21.20;99.90
23081;DHT22;11708;50.570;8.532;2022-09-09T11:33:26;21.60;99.90
23081;DHT22;11708;50.570;8.532;2022-09-09T11:35:47;21.80;99.90
23081;DHT22;11708;50.570;8.532;2022-09-09T11:38:29;22.10;99.90
23081;DHT22;11708;50.570;8.532;2022-09-09T11:41:01;22.10;99.90
23081;DHT22;11708;50.570;8.532;2022-09-09T11:43:45;22.00;99.90
23081;DHT22;11708;50.570;8.532;2022-09-09T11:46:14;21.80;99.90
23081;DHT22;11708;50.570;8.532;2022-09-09T11:48:43;21.70;99.90
23081;DHT22;11708;50.570;8.532;2022-09-09T11:56:50;21.00;99.90
23081;DHT22;11708;50.570;8.532;2022-09-09T11:59:24;21.00;99.90
23081;DHT22;11708;50.570;8.532;2022-09-09T12:02:18;21.00;99.90
23081;DHT22;11708;50.570;8.532;2022-09-09T12:05:08;20.40;99.90
23081;DHT22;11708;50.570;8.532;2022-09-09T12:07:41;20.80;99.90
23081;DHT22;11708;50.570;8.532;2022-09-09T12:10:39;20.80;99.90
23081;DHT22;11708;50.570;8.532;2022-09-09T12:13:25;20.80;99.90
23081;DHT22;11708;50.570;8.532;2022-09-09T12:15:57;20.90;99.90
23081;DHT22;11708;50.570;8.532;2022-09-09T12:18:37;21.00;99.90
23081;DHT22;11708;50.570;8.532;2022-09-09T12:23:47;22.00;99.90
23081;DHT22;11708;50.570;8.532;2022-09-09T12:29:10;22.80;99.90
23081;DHT22;11708;50.570;8.532;2022-09-09T12:31:54;22.80;99.90
23081;DHT22;11708;50.570;8.532;2022-09-09T12:34:47;23.00;99.90
23081;DHT22;11708;50.570;8.532;2022-09-09T12:37:37;23.10;99.90
23081;DHT22;11708;50.570;8.532;2022-09-09T12:40:22;23.30;99.90
23081;DHT22;11708;50.570;8.532;2022-09-09T12:42:49;23.00;99.90
23081;DHT22;11708;50.570;8.532;2022-09-09T12:45:23;22.90;99.90
23081;DHT22;11708;50.570;8.532;2022-09-09T12:48:09;22.80;99.90
23081;DHT22;11708;50.570;8.532;2022-09-09T12:50:49;22.70;99.90
23081;DHT22;11708;50.570;8.532;2022-09-09T12:53:31;22.30;99.90
23081;DHT22;11708;50.570;8.532;2022-09-09T12:56:06;22.00;99.90
23081;DHT22;11708;50.570;8.532;2022-09-09T12:58:36;21.80;99.90
23081;DHT22;11708;50.570;8.532;2022-09-09T13:01:04;21.70;99.90
23081;DHT22;11708;50.570;8.532;2022-09-09T13:03:31;21.60;99.90
23081;DHT22;11708;50.570;8.532;2022-09-09T13:05:59;21.50;99.90
23081;DHT22;11708;50.570;8.532;2022-09-09T13:08:27;21.00;99.90
23081;DHT22;11708;50.570;8.532;2022-09-09T13:11:00;21.40;99.90
23081;DHT22;11708;50.570;8.532;2022-09-09T13:13:31;21.30;99.90
23081;DHT22;11708;50.570;8.532;2022-09-09T13:16:00;21.10;99.90
23081;DHT22;11708;50.570;8.532;2022-09-09T13:18:34;21.00;99.90
23081;DHT22;11708;50.570;8.532;2022-09-09T13:21:01;21.00;99.90
23081;DHT22;11708;50.570;8.532;2022-09-09T13:23:32;21.00;99.90
23081;DHT22;11708;50.570;8.532;2022-09-09T13:26:02;20.90;99.90
23081;DHT22;11708;50.570;8.532;2022-09-09T13:28:30;20.80;99.90
23081;DHT22;11708;50.570;8.532;2022-09-09T13:33:34;20.70;99.90
23081;DHT22;11708;50.570;8.532;2022-09-09T13:36:04;20.50;99.90
23081;DHT22;11708;50.570;8.532;2022-09-09T13:38:33;19.80;99.90
23081;DHT22;11708;50.570;8.532;2022-09-09T13:41:05;18.90;99.90
23081;DHT22;11708;50.570;8.532;2022-09-09T13:43:37;17.60;99.90
23081;DHT22;11708;50.570;8.532;2022-09-09T13:48:55;17.40;99.90
23081;DHT22;11708;50.570;8.532;2022-09-09T13:51:33;18.20;99.90
23081;DHT22;11708;50.570;8.532;2022-09-09T13:53:59;18.20;99.90
23081;DHT22;11708;50.570;8.532;2022-09-09T13:56:25;18.80;99.90
23081;DHT22;11708;50.570;8.532;2022-09-09T13:58:51;19.30;99.90
23081;DHT22;11708;50.570;8.532;2022-09-09T14:01:17;19.90;99.90
23081;DHT22;11708;50.570;8.532;2022-09-09T14:03:42;20.50;99.90
23081;DHT22;11708;50.570;8.532;2022-09-09T14:06:12;21.30;99.90
23081;DHT22;11708;50.570;8.532;2022-09-09T14:08:37;21.70;99.90
23081;DHT22;11708;50.570;8.532;2022-09-09T14:11:04;22.20;99.90
23081;DHT22;11708;50.570;8.532;2022-09-09T14:13:29;22.50;99.90
23081;DHT22;11708;50.570;8.532;2022-09-09T14:15:55;22.90;99.90
23081;DHT22;11708;50.570;8.532;2022-09-09T14:18:21;22.80;99.90
23081;DHT22;11708;50.570;8.532;2022-09-09T14:20:48;22.90;99.90
23081;DHT22;11708;50.570;8.532;2022-09-09T14:23:15;23.10;99.90
23081;DHT22;11708;50.570;8.532;2022-09-09T14:25:43;23.70;99.90
23081;DHT22;11708;50.570;8.532;2022-09-09T14:28:13;23.50;99.90
23081;DHT22;11708;50.570;8.532;2022-09-09T14:30:40;23.80;99.90
23081;DHT22;11708;50.570;8.532;2022-09-09T14:33:08;24.20;99.90
23081;DHT22;11708;50.570;8.532;2022-09-09T14:35:35;24.70;99.90
23081;DHT22;11708;50.570;8.532;2022-09-09T14:38:02;24.80;99.90
23081;DHT22;11708;50.570;8.532;2022-09-09T14:40:28;24.80;99.90
23081;DHT22;11708;50.570;8.532;2022-09-09T14:42:54;25.10;99.90
23081;DHT22;11708;50.570;8.532;2022-09-09T14:45:22;24.80;99.90
23081;DHT22;11708;50.570;8.532;2022-09-09T14:47:50;24.50;99.90
23081;DHT22;11708;50.570;8.532;2022-09-09T14:50:16;24.00;99.90
23081;DHT22;11708;50.570;8.532;2022-09-09T14:57:36;22.70;99.90
23081;DHT22;11708;50.570;8.532;2022-09-09T15:00:06;21.90;99.90
23081;DHT22;11708;50.570;8.532;2022-09-09T15:02:32;21.50;99.90
23081;DHT22;11708;50.570;8.532;2022-09-09T15:05:01;21.10;99.90
23081;DHT22;11708;50.570;8.532;2022-09-09T15:07:28;21.00;99.90
23081;DHT22;11708;50.570;8.532;2022-09-09T15:09:55;20.90;99.90
23081;DHT22;11708;50.570;8.532;2022-09-09T15:12:21;20.70;99.90
23081;DHT22;11708;50.570;8.532;2022-09-09T15:14:47;20.50;99.90
23081;DHT22;11708;50.570;8.532;2022-09-09T15:17:13;20.40;99.90
23081;DHT22;11708;50.570;8.532;2022-09-09T15:19:39;20.10;99.90
23081;DHT22;11708;50.570;8.532;2022-09-09T15:22:06;20.00;99.90
23081;DHT22;11708;50.570;8.532;2022-09-09T15:26:59;20.00;99.90
23081;DHT22;11708;50.570;8.532;2022-09-09T15:29:25;20.20;99.90
23081;DHT22;11708;50.570;8.532;2022-09-09T15:31:55;20.30;99.90
23081;DHT22;11708;50.570;8.532;2022-09-09T15:34:21;20.10;99.90
23081;DHT22;11708;50.570;8.532;2022-09-09T15:36:48;20.20;99.90
23081;DHT22;11708;50.570;8.532;2022-09-09T15:39:16;20.00;99.90
23081;DHT22;11708;50.570;8.532;2022-09-09T15:41:43;20.10;99.90
23081;DHT22;11708;50.570;8.532;2022-09-09T15:44:10;19.80;99.90
23081;DHT22;11708;50.570;8.532;2022-09-09T15:46:42;19.90;99.90
23081;DHT22;11708;50.570;8.532;2022-09-09T15:49:16;19.60;99.90
23081;DHT22;11708;50.570;8.532;2022-09-09T15:51:45;19.50;99.90
23081;DHT22;11708;50.570;8.532;2022-09-09T15:54:16;20.40;99.90
23081;DHT22;11708;50.570;8.532;2022-09-09T15:56:43;19.90;99.90
23081;DHT22;11708;50.570;8.532;2022-09-09T15:59:09;19.00;99.90
23081;DHT22;11708;50.570;8.532;2022-09-09T16:01:37;19.10;99.90
23081;DHT22;11708;50.570;8.532;2022-09-09T16:04:04;19.20;99.90
23081;DHT22;11708;50.570;8.532;2022-09-09T16:06:30;19.10;99.90
23081;DHT22;11708;50.570;8.532;2022-09-09T16:08:57;19.00;99.90
23081;DHT22;11708;50.570;8.532;2022-09-09T16:11:25;18.80;99.90
23081;DHT22;11708;50.570;8.532;2022-09-09T16:13:53;18.80;99.90
23081;DHT22;11708;50.570;8.532;2022-09-09T16:16:21;19.70;99.90
23081;DHT22;11708;50.570;8.532;2022-09-09T16:18:55;18.70;99.90
23081;DHT22;11708;50.570;8.532;2022-09-09T16:21:30;18.60;99.90
23081;DHT22;11708;50.570;8.532;2022-09-09T16:23:58;18.60;99.90
23081;DHT22;11708;50.570;8.532;2022-09-09T16:26:33;18.60;99.90
23081;DHT22;11708;50.570;8.532;2022-09-09T16:29:00;18.50;99.90
23081;DHT22;11708;50.570;8.532;2022-09-09T16:31:27;18.40;99.90
23081;DHT22;11708;50.570;8.532;2022-09-09T16:33:53;18.30;99.90
23081;DHT22;11708;50.570;8.532;2022-09-09T16:36:27;18.20;99.90
23081;DHT22;11708;50.570;8.532;2022-09-09T16:38:54;18.00;99.90
23081;DHT22;11708;50.570;8.532;2022-09-09T16:41:21;17.80;99.90
23081;DHT22;11708;50.570;8.532;2022-09-09T16:43:47;17.60;99.90
23081;DHT22;11708;50.570;8.532;2022-09-09T16:46:18;17.40;99.90
23081;DHT22;11708;50.570;8.532;2022-09-09T16:48:45;17.20;99.90
23081;DHT22;11708;50.570;8.532;2022-09-09T16:51:17;17.10;99.90
23081;DHT22;11708;50.570;8.532;2022-09-09T16:53:42;17.00;99.90
23081;DHT22;11708;50.570;8.532;2022-09-09T16:56:11;16.90;99.90
23081;DHT22;11708;50.570;8.532;2022-09-09T16:58:37;16.80;99.90
23081;DHT22;11708;50.570;8.532;2022-09-09T17:03:30;16.80;99.90
23081;DHT22;11708;50.570;8.532;2022-09-09T17:05:57;16.80;99.90
23081;DHT22;11708;50.570;8.532;2022-09-09T17:08:23;16.70;99.90
23081;DHT22;11708;50.570;8.532;2022-09-09T17:10:49;16.70;99.90
23081;DHT22;11708;50.570;8.532;2022-09-09T17:15:47;16.70;99.90
23081;DHT22;11708;50.570;8.532;2022-09-09T17:18:13;16.70;99.90
23081;DHT22;11708;50.570;8.532;2022-09-09T17:20:39;16.80;99.90
23081;DHT22;11708;50.570;8.532;2022-09-09T17:23:07;17.60;99.90
23081;DHT22;11708;50.570;8.532;2022-09-09T17:25:45;16.80;99.90
23081;DHT22;11708;50.570;8.532;2022-09-09T17:28:21;16.80;99.90
23081;DHT22;11708;50.570;8.532;2022-09-09T17:30:52;16.90;99.90
23081;DHT22;11708;50.570;8.532;2022-09-09T17:35:45;17.30;99.90
23081;DHT22;11708;50.570;8.532;2022-09-09T17:38:10;17.00;99.90
23081;DHT22;11708;50.570;8.532;2022-09-09T17:40:37;17.60;99.90
23081;DHT22;11708;50.570;8.532;2022-09-09T17:43:03;17.20;99.90
23081;DHT22;11708;50.570;8.532;2022-09-09T17:45:30;17.20;99.90
23081;DHT22;11708;50.570;8.532;2022-09-09T17:47:56;17.20;99.90
23081;DHT22;11708;50.570;8.532;2022-09-09T17:50:22;17.20;99.90
23081;DHT22;11708;50.570;8.532;2022-09-09T17:52:52;17.20;99.90
23081;DHT22;11708;50.570;8.532;2022-09-09T17:55:22;17.20;99.90
23081;DHT22;11708;50.570;8.532;2022-09-09T17:57:48;17.10;99.90
23081;DHT22;11708;50.570;8.532;2022-09-09T18:00:13;17.10;99.90
23081;DHT22;11708;50.570;8.532;2022-09-09T18:02:39;17.00;99.90